sensor_id;sensor_type;location;lat;lon;timestamp;P1;durP1;ratioP1;P2;durP2;ratioP2
74616;SDS011;63123;50.906;4.198;2022-11-21T00:01:58;2.65;;;2.45;;
74616;SDS011;63123;50.906;4.198;2022-11-21T00:04:23;2.75;;;2.55;;
74616;SDS011;63123;50.906;4.198;2022-11-21T00:06:49;3.10;;;2.45;;
74616;SDS011;63123;50.906;4.198;2022-11-21T00:09:16;2.50;;;2.30;;
74616;SDS011;63123;50.906;4.198;2022-11-21T00:11:42;3.15;;;2.38;;
74616;SDS011;63123;50.906;4.198;2022-11-21T00:14:07;3.25;;;2.70;;
74616;SDS011;63123;50.906;4.198;2022-11-21T00:16:33;2.63;;;2.33;;
74616;SDS011;63123;50.906;4.198;2022-11-21T00:18:59;2.50;;;2.30;;
74616;SDS011;63123;50.906;4.198;2022-11-21T00:21:24;3.08;;;2.65;;
74616;SDS011;63123;50.906;4.198;2022-11-21T00:23:50;2.72;;;2.40;;
74616;SDS011;63123;50.906;4.198;2022-11-21T00:26:16;2.88;;;2.65;;
74616;SDS011;63123;50.906;4.198;2022-11-21T00:28:42;2.80;;;2.60;;
74616;SDS011;63123;50.906;4.198;2022-11-21T00:31:08;2.10;;;1.90;;
74616;SDS011;63123;50.906;4.198;2022-11-21T00:33:41;2.70;;;2.50;;
74616;SDS011;63123;50.906;4.198;2022-11-21T00:36:07;2.30;;;2.10;;
74616;SDS011;63123;50.906;4.198;2022-11-21T00:38:33;3.03;;;2.50;;
74616;SDS011;63123;50.906;4.198;2022-11-21T00:40:59;2.72;;;2.53;;
74616;SDS011;63123;50.906;4.198;2022-11-21T00:43:25;2.65;;;2.45;;
74616;SDS011;63123;50.906;4.198;2022-11-21T00:45:50;2.42;;;2.22;;
74616;SDS011;63123;50.906;4.198;2022-11-21T00:48:16;2.95;;;2.30;;
74616;SDS011;63123;50.906;4.198;2022-11-21T00:50:41;2.38;;;2.17;;
74616;SDS011;63123;50.906;4.198;2022-11-21T00:53:07;2.85;;;2.60;;
74616;SDS011;63123;50.906;4.198;2022-11-21T00:55:33;2.25;;;2.08;;
74616;SDS011;63123;50.906;4.198;2022-11-21T00:58:00;2.53;;;2.33;;
74616;SDS011;63123;50.906;4.198;2022-11-21T01:00:26;2.58;;;2.33;;
74616;SDS011;63123;50.906;4.198;2022-11-21T01:02:52;2.50;;;2.30;;
74616;SDS011;63123;50.906;4.198;2022-11-21T01:05:17;2.90;;;2.30;;
74616;SDS011;63123;50.906;4.198;2022-11-21T01:07:43;2.40;;;2.20;;
74616;SDS011;63123;50.906;4.198;2022-11-21T01:10:08;2.38;;;2.17;;
74616;SDS011;63123;50.906;4.198;2022-11-21T01:12:34;3.05;;;2.75;;
74616;SDS011;63123;50.906;4.198;2022-11-21T01:14:59;2.55;;;2.35;;
74616;SDS011;63123;50.906;4.198;2022-11-21T01:17:25;4.82;;;2.33;;
74616;SDS011;63123;50.906;4.198;2022-11-21T01:19:51;3.88;;;2.20;;
74616;SDS011;63123;50.906;4.198;2022-11-21T01:22:16;2.10;;;1.92;;
74616;SDS011;63123;50.906;4.198;2022-11-21T01:24:42;2.17;;;2.08;;
74616;SDS011;63123;50.906;4.198;2022-11-21T01:27:07;2.30;;;2.10;;
74616;SDS011;63123;50.906;4.198;2022-11-21T01:29:33;2.60;;;2.40;;
74616;SDS011;63123;50.906;4.198;2022-11-21T01:31:58;2.38;;;2.17;;
74616;SDS011;63123;50.906;4.198;2022-11-21T01:34:24;2.42;;;2.22;;
74616;SDS011;63123;50.906;4.198;2022-11-21T01:36:49;2.63;;;2.42;;
74616;SDS011;63123;50.906;4.198;2022-11-21T01:39:15;3.00;;;2.20;;
74616;SDS011;63123;50.906;4.198;2022-11-21T01:41:42;2.80;;;2.60;;
74616;SDS011;63123;50.906;4.198;2022-11-21T01:44:11;2.17;;;2.00;;
74616;SDS011;63123;50.906;4.198;2022-11-21T01:46:42;2.58;;;2.20;;
74616;SDS011;63123;50.906;4.198;2022-11-21T01:49:23;2.45;;;2.20;;
74616;SDS011;63123;50.906;4.198;2022-11-21T01:51:54;2.80;;;2.22;;
74616;SDS011;63123;50.906;4.198;2022-11-21T01:59:36;3.25;;;2.20;;
74616;SDS011;63123;50.906;4.198;2022-11-21T02:02:05;2.10;;;1.92;;
74616;SDS011;63123;50.906;4.198;2022-11-21T02:04:33;2.65;;;2.45;;
74616;SDS011;63123;50.906;4.198;2022-11-21T02:07:00;2.50;;;2.00;;
74616;SDS011;63123;50.906;4.198;2022-11-21T02:09:28;2.50;;;2.30;;
74616;SDS011;63123;50.906;4.198;2022-11-21T02:11:57;2.10;;;1.85;;
74616;SDS011;63123;50.906;4.198;2022-11-21T02:14:35;2.78;;;2.15;;
74616;SDS011;63123;50.906;4.198;2022-11-21T02:17:04;2.13;;;1.90;;
74616;SDS011;63123;50.906;4.198;2022-11-21T02:19:34;2.17;;;1.98;;
74616;SDS011;63123;50.906;4.198;2022-11-21T02:27:41;2.30;;;2.10;;
74616;SDS011;63123;50.906;4.198;2022-11-21T02:30:08;1.90;;;1.80;;
74616;SDS011;63123;50.906;4.198;2022-11-21T02:32:35;2.35;;;2.10;;
74616;SDS011;63123;50.906;4.198;2022-11-21T02:35:14;2.47;;;2.25;;
74616;SDS011;63123;50.906;4.198;2022-11-21T02:37:41;2.00;;;1.90;;
74616;SDS011;63123;50.906;4.198;2022-11-21T02:40:21;2.13;;;1.92;;
74616;SDS011;63123;50.906;4.198;2022-11-21T02:45:40;2.20;;;1.73;;
74616;SDS011;63123;50.906;4.198;2022-11-21T02:48:07;2.17;;;1.85;;
74616;SDS011;63123;50.906;4.198;2022-11-21T02:50:34;2.50;;;1.98;;
74616;SDS011;63123;50.906;4.198;2022-11-21T02:53:02;2.33;;;1.52;;
74616;SDS011;63123;50.906;4.198;2022-11-21T02:55:30;2.97;;;2.05;;
74616;SDS011;63123;50.906;4.198;2022-11-21T02:57:56;2.50;;;1.92;;
74616;SDS011;63123;50.906;4.198;2022-11-21T03:00:22;1.77;;;1.67;;
74616;SDS011;63123;50.906;4.198;2022-11-21T03:02:48;2.80;;;1.90;;
74616;SDS011;63123;50.906;4.198;2022-11-21T03:05:15;1.92;;;1.75;;
74616;SDS011;63123;50.906;4.198;2022-11-21T03:07:42;2.00;;;1.80;;
74616;SDS011;63123;50.906;4.198;2022-11-21T03:10:08;2.65;;;2.45;;
74616;SDS011;63123;50.906;4.198;2022-11-21T03:12:38;2.40;;;1.80;;
74616;SDS011;63123;50.906;4.198;2022-11-21T03:15:05;1.52;;;1.42;;
74616;SDS011;63123;50.906;4.198;2022-11-21T03:17:32;2.13;;;1.65;;
74616;SDS011;63123;50.906;4.198;2022-11-21T03:19:57;1.58;;;1.48;;
74616;SDS011;63123;50.906;4.198;2022-11-21T03:22:23;3.05;;;1.80;;
74616;SDS011;63123;50.906;4.198;2022-11-21T03:24:49;1.63;;;1.50;;
74616;SDS011;63123;50.906;4.198;2022-11-21T03:27:14;1.70;;;1.50;;
74616;SDS011;63123;50.906;4.198;2022-11-21T03:29:40;1.85;;;1.63;;
74616;SDS011;63123;50.906;4.198;2022-11-21T03:32:06;2.42;;;1.83;;
74616;SDS011;63123;50.906;4.198;2022-11-21T03:34:31;1.60;;;1.50;;
74616;SDS011;63123;50.906;4.198;2022-11-21T03:36:57;1.52;;;1.40;;
74616;SDS011;63123;50.906;4.198;2022-11-21T03:39:22;1.92;;;1.80;;
74616;SDS011;63123;50.906;4.198;2022-11-21T03:41:48;1.40;;;1.30;;
74616;SDS011;63123;50.906;4.198;2022-11-21T03:44:14;1.70;;;1.60;;
74616;SDS011;63123;50.906;4.198;2022-11-21T03:46:40;1.65;;;1.55;;
74616;SDS011;63123;50.906;4.198;2022-11-21T03:49:07;1.90;;;1.70;;
74616;SDS011;63123;50.906;4.198;2022-11-21T03:51:34;1.77;;;1.67;;
74616;SDS011;63123;50.906;4.198;2022-11-21T03:54:00;2.13;;;1.50;;
74616;SDS011;63123;50.906;4.198;2022-11-21T03:56:26;2.13;;;1.92;;
74616;SDS011;63123;50.906;4.198;2022-11-21T03:58:52;2.03;;;1.40;;
74616;SDS011;63123;50.906;4.198;2022-11-21T04:01:18;1.80;;;1.70;;
74616;SDS011;63123;50.906;4.198;2022-11-21T04:03:44;1.67;;;1.55;;
74616;SDS011;63123;50.906;4.198;2022-11-21T04:06:11;1.65;;;1.50;;
74616;SDS011;63123;50.906;4.198;2022-11-21T04:08:37;1.90;;;1.67;;
74616;SDS011;63123;50.906;4.198;2022-11-21T04:11:03;2.50;;;2.05;;
74616;SDS011;63123;50.906;4.198;2022-11-21T04:13:29;2.03;;;1.83;;
74616;SDS011;63123;50.906;4.198;2022-11-21T04:15:55;1.92;;;1.45;;
74616;SDS011;63123;50.906;4.198;2022-11-21T04:18:21;1.55;;;1.40;;
74616;SDS011;63123;50.906;4.198;2022-11-21T04:20:47;1.73;;;1.60;;
74616;SDS011;63123;50.906;4.198;2022-11-21T04:23:12;1.70;;;1.40;;
74616;SDS011;63123;50.906;4.198;2022-11-21T04:25:38;1.60;;;1.50;;
74616;SDS011;63123;50.906;4.198;2022-11-21T04:28:04;1.58;;;1.48;;
74616;SDS011;63123;50.906;4.198;2022-11-21T04:30:31;1.60;;;1.50;;
74616;SDS011;63123;50.906;4.198;2022-11-21T04:32:58;1.60;;;1.50;;
74616;SDS011;63123;50.906;4.198;2022-11-21T04:35:23;1.75;;;1.20;;
74616;SDS011;63123;50.906;4.198;2022-11-21T04:37:50;1.65;;;1.30;;
74616;SDS011;63123;50.906;4.198;2022-11-21T04:40:16;1.55;;;1.45;;
74616;SDS011;63123;50.906;4.198;2022-11-21T04:42:42;1.70;;;1.60;;
74616;SDS011;63123;50.906;4.198;2022-11-21T04:45:09;2.05;;;1.23;;
74616;SDS011;63123;50.906;4.198;2022-11-21T04:47:36;1.73;;;1.48;;
74616;SDS011;63123;50.906;4.198;2022-11-21T04:50:03;2.15;;;1.60;;
74616;SDS011;63123;50.906;4.198;2022-11-21T04:52:29;1.73;;;1.50;;
74616;SDS011;63123;50.906;4.198;2022-11-21T04:54:54;1.90;;;1.63;;
74616;SDS011;63123;50.906;4.198;2022-11-21T04:57:20;1.67;;;1.58;;
74616;SDS011;63123;50.906;4.198;2022-11-21T04:59:46;2.03;;;1.63;;
74616;SDS011;63123;50.906;4.198;2022-11-21T05:02:11;1.17;;;1.08;;
74616;SDS011;63123;50.906;4.198;2022-11-21T05:04:37;3.00;;;1.40;;
74616;SDS011;63123;50.906;4.198;2022-11-21T05:07:03;2.13;;;1.60;;
74616;SDS011;63123;50.906;4.198;2022-11-21T05:09:28;1.60;;;1.48;;
74616;SDS011;63123;50.906;4.198;2022-11-21T05:11:54;1.50;;;1.40;;
74616;SDS011;63123;50.906;4.198;2022-11-21T05:14:38;1.57;;;1.47;;
74616;SDS011;63123;50.906;4.198;2022-11-21T05:17:04;1.83;;;1.50;;
74616;SDS011;63123;50.906;4.198;2022-11-21T05:19:29;1.83;;;1.40;;
74616;SDS011;63123;50.906;4.198;2022-11-21T05:21:55;1.75;;;1.40;;
74616;SDS011;63123;50.906;4.198;2022-11-21T05:24:20;1.70;;;1.30;;
74616;SDS011;63123;50.906;4.198;2022-11-21T05:26:46;2.25;;;1.40;;
74616;SDS011;63123;50.906;4.198;2022-11-21T05:29:12;1.67;;;1.50;;
74616;SDS011;63123;50.906;4.198;2022-11-21T05:31:37;2.20;;;1.60;;
74616;SDS011;63123;50.906;4.198;2022-11-21T05:34:03;1.65;;;1.45;;
74616;SDS011;63123;50.906;4.198;2022-11-21T05:36:28;1.30;;;1.20;;
74616;SDS011;63123;50.906;4.198;2022-11-21T05:38:54;1.30;;;1.20;;
74616;SDS011;63123;50.906;4.198;2022-11-21T05:41:20;1.30;;;1.20;;
74616;SDS011;63123;50.906;4.198;2022-11-21T05:43:45;1.50;;;1.35;;
74616;SDS011;63123;50.906;4.198;2022-11-21T05:46:15;1.67;;;1.30;;
74616;SDS011;63123;50.906;4.198;2022-11-21T05:48:42;1.80;;;1.30;;
74616;SDS011;63123;50.906;4.198;2022-11-21T05:51:07;1.27;;;1.10;;
74616;SDS011;63123;50.906;4.198;2022-11-21T05:53:33;1.20;;;1.10;;
74616;SDS011;63123;50.906;4.198;2022-11-21T05:56:03;1.23;;;1.10;;
74616;SDS011;63123;50.906;4.198;2022-11-21T05:58:30;1.30;;;1.20;;
74616;SDS011;63123;50.906;4.198;2022-11-21T06:00:57;1.60;;;1.20;;
74616;SDS011;63123;50.906;4.198;2022-11-21T06:03:23;2.15;;;1.33;;
74616;SDS011;63123;50.906;4.198;2022-11-21T06:06:05;1.38;;;1.27;;
74616;SDS011;63123;50.906;4.198;2022-11-21T06:08:32;1.50;;;1.40;;
74616;SDS011;63123;50.906;4.198;2022-11-21T06:11:00;7.13;;;1.88;;
74616;SDS011;63123;50.906;4.198;2022-11-21T06:13:26;1.45;;;1.17;;
74616;SDS011;63123;50.906;4.198;2022-11-21T06:15:54;2.08;;;1.35;;
74616;SDS011;63123;50.906;4.198;2022-11-21T06:18:24;1.98;;;1.17;;
74616;SDS011;63123;50.906;4.198;2022-11-21T06:20:49;1.95;;;1.58;;
74616;SDS011;63123;50.906;4.198;2022-11-21T06:23:15;2.50;;;1.42;;
74616;SDS011;63123;50.906;4.198;2022-11-21T06:25:41;2.00;;;1.48;;
74616;SDS011;63123;50.906;4.198;2022-11-21T06:28:08;1.38;;;1.20;;
74616;SDS011;63123;50.906;4.198;2022-11-21T06:30:34;1.92;;;1.40;;
74616;SDS011;63123;50.906;4.198;2022-11-21T06:33:01;2.28;;;1.50;;
74616;SDS011;63123;50.906;4.198;2022-11-21T06:35:28;1.63;;;1.40;;
74616;SDS011;63123;50.906;4.198;2022-11-21T06:37:55;2.15;;;1.55;;
74616;SDS011;63123;50.906;4.198;2022-11-21T06:40:22;2.05;;;1.35;;
74616;SDS011;63123;50.906;4.198;2022-11-21T06:42:48;1.75;;;1.35;;
74616;SDS011;63123;50.906;4.198;2022-11-21T06:45:13;1.65;;;1.23;;
74616;SDS011;63123;50.906;4.198;2022-11-21T06:47:39;1.20;;;1.10;;
74616;SDS011;63123;50.906;4.198;2022-11-21T06:50:04;1.33;;;1.20;;
74616;SDS011;63123;50.906;4.198;2022-11-21T06:52:33;1.77;;;1.55;;
74616;SDS011;63123;50.906;4.198;2022-11-21T06:54:59;1.52;;;1.40;;
74616;SDS011;63123;50.906;4.198;2022-11-21T06:57:25;2.10;;;1.70;;
74616;SDS011;63123;50.906;4.198;2022-11-21T06:59:51;3.13;;;1.60;;
74616;SDS011;63123;50.906;4.198;2022-11-21T07:02:16;2.17;;;1.45;;
74616;SDS011;63123;50.906;4.198;2022-11-21T07:04:42;2.22;;;1.48;;
74616;SDS011;63123;50.906;4.198;2022-11-21T07:07:07;2.30;;;1.85;;
74616;SDS011;63123;50.906;4.198;2022-11-21T07:09:33;1.67;;;1.15;;
74616;SDS011;63123;50.906;4.198;2022-11-21T07:12:00;1.30;;;1.08;;
74616;SDS011;63123;50.906;4.198;2022-11-21T07:14:46;2.17;;;1.42;;
74616;SDS011;63123;50.906;4.198;2022-11-21T07:17:12;1.30;;;1.20;;
74616;SDS011;63123;50.906;4.198;2022-11-21T07:19:38;3.22;;;1.70;;
74616;SDS011;63123;50.906;4.198;2022-11-21T07:22:04;1.45;;;1.15;;
74616;SDS011;63123;50.906;4.198;2022-11-21T07:24:30;3.15;;;1.70;;
74616;SDS011;63123;50.906;4.198;2022-11-21T07:26:56;2.17;;;1.33;;
74616;SDS011;63123;50.906;4.198;2022-11-21T07:29:21;2.22;;;1.40;;
74616;SDS011;63123;50.906;4.198;2022-11-21T07:31:47;1.65;;;1.35;;
74616;SDS011;63123;50.906;4.198;2022-11-21T07:34:12;1.63;;;1.10;;
74616;SDS011;63123;50.906;4.198;2022-11-21T07:36:38;2.35;;;1.35;;
74616;SDS011;63123;50.906;4.198;2022-11-21T07:39:04;1.52;;;1.17;;
74616;SDS011;63123;50.906;4.198;2022-11-21T07:41:30;1.73;;;1.40;;
74616;SDS011;63123;50.906;4.198;2022-11-21T07:43:56;1.50;;;1.17;;
74616;SDS011;63123;50.906;4.198;2022-11-21T07:46:22;2.05;;;1.52;;
74616;SDS011;63123;50.906;4.198;2022-11-21T07:48:47;2.63;;;1.40;;
74616;SDS011;63123;50.906;4.198;2022-11-21T07:51:13;1.88;;;1.40;;
74616;SDS011;63123;50.906;4.198;2022-11-21T07:53:39;2.25;;;1.10;;
74616;SDS011;63123;50.906;4.198;2022-11-21T07:56:04;1.63;;;1.40;;
74616;SDS011;63123;50.906;4.198;2022-11-21T07:58:33;2.08;;;1.48;;
74616;SDS011;63123;50.906;4.198;2022-11-21T08:01:01;1.70;;;1.55;;
74616;SDS011;63123;50.906;4.198;2022-11-21T08:03:29;2.45;;;1.40;;
74616;SDS011;63123;50.906;4.198;2022-11-21T08:05:55;1.73;;;1.30;;
74616;SDS011;63123;50.906;4.198;2022-11-21T08:08:20;1.55;;;1.45;;
74616;SDS011;63123;50.906;4.198;2022-11-21T08:10:46;1.52;;;1.23;;
74616;SDS011;63123;50.906;4.198;2022-11-21T08:13:12;1.45;;;1.35;;
74616;SDS011;63123;50.906;4.198;2022-11-21T08:15:38;1.92;;;1.33;;
74616;SDS011;63123;50.906;4.198;2022-11-21T08:20:40;1.50;;;1.30;;
74616;SDS011;63123;50.906;4.198;2022-11-21T08:23:06;1.20;;;1.10;;
74616;SDS011;63123;50.906;4.198;2022-11-21T08:25:35;1.10;;;1.00;;
74616;SDS011;63123;50.906;4.198;2022-11-21T08:28:02;1.80;;;1.33;;
74616;SDS011;63123;50.906;4.198;2022-11-21T08:30:28;1.30;;;1.10;;
74616;SDS011;63123;50.906;4.198;2022-11-21T08:32:56;1.58;;;1.15;;
74616;SDS011;63123;50.906;4.198;2022-11-21T08:35:21;1.25;;;1.13;;
74616;SDS011;63123;50.906;4.198;2022-11-21T08:37:47;2.08;;;1.33;;
74616;SDS011;63123;50.906;4.198;2022-11-21T08:40:13;2.30;;;1.45;;
74616;SDS011;63123;50.906;4.198;2022-11-21T08:42:38;1.92;;;1.38;;
74616;SDS011;63123;50.906;4.198;2022-11-21T08:45:04;2.10;;;1.58;;
74616;SDS011;63123;50.906;4.198;2022-11-21T08:47:33;1.85;;;1.60;;
74616;SDS011;63123;50.906;4.198;2022-11-21T08:49:59;1.63;;;1.40;;
74616;SDS011;63123;50.906;4.198;2022-11-21T08:52:24;1.63;;;1.40;;
74616;SDS011;63123;50.906;4.198;2022-11-21T08:54:50;1.73;;;1.40;;
74616;SDS011;63123;50.906;4.198;2022-11-21T08:57:15;1.70;;;1.60;;
74616;SDS011;63123;50.906;4.198;2022-11-21T08:59:41;1.67;;;1.30;;
74616;SDS011;63123;50.906;4.198;2022-11-21T09:02:08;1.75;;;1.65;;
74616;SDS011;63123;50.906;4.198;2022-11-21T09:04:34;2.13;;;1.60;;
74616;SDS011;63123;50.906;4.198;2022-11-21T09:07:00;2.85;;;1.52;;
74616;SDS011;63123;50.906;4.198;2022-11-21T09:09:26;1.90;;;1.45;;
74616;SDS011;63123;50.906;4.198;2022-11-21T09:11:51;1.77;;;1.50;;
74616;SDS011;63123;50.906;4.198;2022-11-21T09:14:17;2.22;;;1.73;;
74616;SDS011;63123;50.906;4.198;2022-11-21T09:17:21;2.42;;;2.00;;
74616;SDS011;63123;50.906;4.198;2022-11-21T09:20:05;1.85;;;1.48;;
74616;SDS011;63123;50.906;4.198;2022-11-21T09:22:31;3.00;;;2.00;;
74616;SDS011;63123;50.906;4.198;2022-11-21T09:24:57;2.38;;;1.63;;
74616;SDS011;63123;50.906;4.198;2022-11-21T09:27:22;2.40;;;1.83;;
74616;SDS011;63123;50.906;4.198;2022-11-21T09:29:48;1.67;;;1.48;;
74616;SDS011;63123;50.906;4.198;2022-11-21T09:32:14;2.30;;;2.10;;
74616;SDS011;63123;50.906;4.198;2022-11-21T09:34:39;2.17;;;1.63;;
74616;SDS011;63123;50.906;4.198;2022-11-21T09:37:05;2.28;;;1.67;;
74616;SDS011;63123;50.906;4.198;2022-11-21T09:39:30;2.20;;;1.70;;
74616;SDS011;63123;50.906;4.198;2022-11-21T09:45:02;3.13;;;1.70;;
74616;SDS011;63123;50.906;4.198;2022-11-21T09:47:50;2.95;;;2.13;;
74616;SDS011;63123;50.906;4.198;2022-11-21T09:50:32;2.20;;;1.55;;
74616;SDS011;63123;50.906;4.198;2022-11-21T09:53:02;1.83;;;1.67;;
74616;SDS011;63123;50.906;4.198;2022-11-21T10:01:04;3.13;;;2.15;;
74616;SDS011;63123;50.906;4.198;2022-11-21T10:03:31;2.47;;;1.63;;
74616;SDS011;63123;50.906;4.198;2022-11-21T10:06:03;2.25;;;1.60;;
74616;SDS011;63123;50.906;4.198;2022-11-21T10:08:42;1.63;;;1.40;;
74616;SDS011;63123;50.906;4.198;2022-11-21T10:14:33;1.77;;;1.52;;
74616;SDS011;63123;50.906;4.198;2022-11-21T10:20:15;1.63;;;1.52;;
74616;SDS011;63123;50.906;4.198;2022-11-21T10:26:22;1.75;;;1.42;;
74616;SDS011;63123;50.906;4.198;2022-11-21T10:29:04;2.45;;;1.65;;
74616;SDS011;63123;50.906;4.198;2022-11-21T10:31:39;1.60;;;1.23;;
74616;SDS011;63123;50.906;4.198;2022-11-21T10:34:11;2.10;;;1.50;;
74616;SDS011;63123;50.906;4.198;2022-11-21T10:36:45;1.95;;;1.42;;
74616;SDS011;63123;50.906;4.198;2022-11-21T10:45:02;2.17;;;1.65;;
74616;SDS011;63123;50.906;4.198;2022-11-21T10:47:41;1.85;;;1.70;;
74616;SDS011;63123;50.906;4.198;2022-11-21T10:52:34;2.05;;;1.60;;
74616;SDS011;63123;50.906;4.198;2022-11-21T11:02:36;1.70;;;1.58;;
74616;SDS011;63123;50.906;4.198;2022-11-21T11:05:32;2.75;;;1.73;;
74616;SDS011;63123;50.906;4.198;2022-11-21T11:08:06;2.00;;;1.80;;
74616;SDS011;63123;50.906;4.198;2022-11-21T11:10:34;3.05;;;2.13;;
74616;SDS011;63123;50.906;4.198;2022-11-21T11:13:01;1.90;;;1.70;;
74616;SDS011;63123;50.906;4.198;2022-11-21T11:15:58;2.15;;;1.90;;
74616;SDS011;63123;50.906;4.198;2022-11-21T11:18:38;2.30;;;1.80;;
74616;SDS011;63123;50.906;4.198;2022-11-21T11:21:15;2.33;;;1.70;;
74616;SDS011;63123;50.906;4.198;2022-11-21T11:23:43;2.00;;;1.80;;
74616;SDS011;63123;50.906;4.198;2022-11-21T11:26:21;3.05;;;2.00;;
74616;SDS011;63123;50.906;4.198;2022-11-21T11:28:49;2.17;;;1.67;;
74616;SDS011;63123;50.906;4.198;2022-11-21T11:31:15;1.90;;;1.70;;
74616;SDS011;63123;50.906;4.198;2022-11-21T11:33:50;3.03;;;2.17;;
74616;SDS011;63123;50.906;4.198;2022-11-21T11:39:21;2.55;;;2.05;;
74616;SDS011;63123;50.906;4.198;2022-11-21T11:42:41;1.63;;;1.52;;
74616;SDS011;63123;50.906;4.198;2022-11-21T11:48:08;3.17;;;2.10;;
74616;SDS011;63123;50.906;4.198;2022-11-21T11:50:38;2.65;;;1.65;;
74616;SDS011;63123;50.906;4.198;2022-11-21T11:55:57;2.20;;;1.92;;
74616;SDS011;63123;50.906;4.198;2022-11-21T12:01:15;1.70;;;1.60;;
74616;SDS011;63123;50.906;4.198;2022-11-21T12:04:00;2.00;;;1.80;;
74616;SDS011;63123;50.906;4.198;2022-11-21T12:14:47;2.00;;;1.80;;
74616;SDS011;63123;50.906;4.198;2022-11-21T12:17:42;2.33;;;2.08;;
74616;SDS011;63123;50.906;4.198;2022-11-21T12:20:31;2.72;;;1.77;;
74616;SDS011;63123;50.906;4.198;2022-11-21T12:23:01;2.08;;;1.73;;
74616;SDS011;63123;50.906;4.198;2022-11-21T12:25:29;1.70;;;1.58;;
74616;SDS011;63123;50.906;4.198;2022-11-21T12:27:58;2.50;;;1.88;;
74616;SDS011;63123;50.906;4.198;2022-11-21T12:30:30;2.22;;;1.88;;
74616;SDS011;63123;50.906;4.198;2022-11-21T12:33:02;2.88;;;2.10;;
74616;SDS011;63123;50.906;4.198;2022-11-21T12:41:25;2.65;;;1.95;;
74616;SDS011;63123;50.906;4.198;2022-11-21T12:54:06;2.75;;;2.15;;
74616;SDS011;63123;50.906;4.198;2022-11-21T12:57:08;2.08;;;1.80;;
74616;SDS011;63123;50.906;4.198;2022-11-21T12:59:42;1.85;;;1.65;;
74616;SDS011;63123;50.906;4.198;2022-11-21T13:02:34;1.65;;;1.55;;
74616;SDS011;63123;50.906;4.198;2022-11-21T13:05:20;2.03;;;1.73;;
74616;SDS011;63123;50.906;4.198;2022-11-21T13:07:54;1.88;;;1.77;;
74616;SDS011;63123;50.906;4.198;2022-11-21T13:10:26;1.77;;;1.38;;
74616;SDS011;63123;50.906;4.198;2022-11-21T13:12:56;2.25;;;1.77;;
74616;SDS011;63123;50.906;4.198;2022-11-21T13:15:37;1.98;;;1.70;;
74616;SDS011;63123;50.906;4.198;2022-11-21T13:21:04;2.10;;;1.80;;
74616;SDS011;63123;50.906;4.198;2022-11-21T13:23:33;2.22;;;1.50;;
74616;SDS011;63123;50.906;4.198;2022-11-21T13:26:00;1.63;;;1.45;;
74616;SDS011;63123;50.906;4.198;2022-11-21T13:28:29;1.73;;;1.30;;
74616;SDS011;63123;50.906;4.198;2022-11-21T13:30:58;1.67;;;1.58;;
74616;SDS011;63123;50.906;4.198;2022-11-21T13:38:25;2.22;;;1.60;;
74616;SDS011;63123;50.906;4.198;2022-11-21T13:40:51;2.40;;;1.73;;
74616;SDS011;63123;50.906;4.198;2022-11-21T13:43:35;2.33;;;1.70;;
74616;SDS011;63123;50.906;4.198;2022-11-21T13:46:01;2.05;;;1.58;;
74616;SDS011;63123;50.906;4.198;2022-11-21T13:50:58;2.33;;;1.50;;
74616;SDS011;63123;50.906;4.198;2022-11-21T13:59:20;1.47;;;1.10;;
74616;SDS011;63123;50.906;4.198;2022-11-21T14:07:51;1.73;;;1.40;;
74616;SDS011;63123;50.906;4.198;2022-11-21T14:10:18;2.05;;;1.40;;
74616;SDS011;63123;50.906;4.198;2022-11-21T14:12:57;1.58;;;1.40;;
74616;SDS011;63123;50.906;4.198;2022-11-21T14:18:26;1.85;;;1.17;;
74616;SDS011;63123;50.906;4.198;2022-11-21T14:20:54;1.40;;;1.27;;
74616;SDS011;63123;50.906;4.198;2022-11-21T14:23:27;1.70;;;1.20;;
74616;SDS011;63123;50.906;4.198;2022-11-21T14:26:01;1.60;;;1.10;;
74616;SDS011;63123;50.906;4.198;2022-11-21T14:28:30;1.30;;;1.20;;
74616;SDS011;63123;50.906;4.198;2022-11-21T14:30:58;1.55;;;1.20;;
74616;SDS011;63123;50.906;4.198;2022-11-21T14:33:31;1.83;;;1.50;;
74616;SDS011;63123;50.906;4.198;2022-11-21T14:35:59;1.52;;;1.20;;
74616;SDS011;63123;50.906;4.198;2022-11-21T14:38:27;1.75;;;1.50;;
74616;SDS011;63123;50.906;4.198;2022-11-21T14:41:40;1.42;;;1.33;;
74616;SDS011;63123;50.906;4.198;2022-11-21T14:44:35;2.38;;;1.30;;
74616;SDS011;63123;50.906;4.198;2022-11-21T14:46:36;1.17;;;1.08;;
74616;SDS011;63123;50.906;4.198;2022-11-21T14:51:41;1.70;;;1.27;;
74616;SDS011;63123;50.906;4.198;2022-11-21T14:54:12;1.75;;;1.20;;
74616;SDS011;63123;50.906;4.198;2022-11-21T14:56:41;1.70;;;1.20;;
74616;SDS011;63123;50.906;4.198;2022-11-21T15:02:22;1.48;;;1.30;;
74616;SDS011;63123;50.906;4.198;2022-11-21T15:04:50;1.70;;;1.27;;
74616;SDS011;63123;50.906;4.198;2022-11-21T15:07:24;2.20;;;1.42;;
74616;SDS011;63123;50.906;4.198;2022-11-21T15:09:51;1.98;;;1.48;;
74616;SDS011;63123;50.906;4.198;2022-11-21T15:15:05;1.50;;;1.30;;
74616;SDS011;63123;50.906;4.198;2022-11-21T15:17:53;1.55;;;1.45;;
74616;SDS011;63123;50.906;4.198;2022-11-21T15:20:21;2.00;;;1.30;;
74616;SDS011;63123;50.906;4.198;2022-11-21T15:22:47;3.40;;;2.03;;
74616;SDS011;63123;50.906;4.198;2022-11-21T15:25:18;1.98;;;1.60;;
74616;SDS011;63123;50.906;4.198;2022-11-21T15:27:46;1.45;;;1.20;;
74616;SDS011;63123;50.906;4.198;2022-11-21T15:32:58;1.65;;;1.40;;
74616;SDS011;63123;50.906;4.198;2022-11-21T15:37:59;2.42;;;1.40;;
74616;SDS011;63123;50.906;4.198;2022-11-21T15:40:25;1.45;;;1.20;;
74616;SDS011;63123;50.906;4.198;2022-11-21T15:42:51;1.58;;;1.35;;
74616;SDS011;63123;50.906;4.198;2022-11-21T15:47:49;1.30;;;1.20;;
74616;SDS011;63123;50.906;4.198;2022-11-21T15:50:15;2.10;;;1.50;;
74616;SDS011;63123;50.906;4.198;2022-11-21T15:55:12;1.40;;;1.00;;
74616;SDS011;63123;50.906;4.198;2022-11-21T15:57:43;1.70;;;1.33;;
74616;SDS011;63123;50.906;4.198;2022-11-21T16:00:09;1.73;;;1.35;;
74616;SDS011;63123;50.906;4.198;2022-11-21T16:02:35;1.60;;;1.13;;
74616;SDS011;63123;50.906;4.198;2022-11-21T16:05:01;1.45;;;1.30;;
74616;SDS011;63123;50.906;4.198;2022-11-21T16:07:26;1.63;;;1.08;;
74616;SDS011;63123;50.906;4.198;2022-11-21T16:09:52;2.60;;;1.40;;
74616;SDS011;63123;50.906;4.198;2022-11-21T16:12:19;1.38;;;1.20;;
74616;SDS011;63123;50.906;4.198;2022-11-21T16:14:45;1.70;;;1.38;;
74616;SDS011;63123;50.906;4.198;2022-11-21T16:17:10;1.30;;;1.20;;
74616;SDS011;63123;50.906;4.198;2022-11-21T16:19:36;1.52;;;1.35;;
74616;SDS011;63123;50.906;4.198;2022-11-21T16:22:01;1.88;;;1.45;;
74616;SDS011;63123;50.906;4.198;2022-11-21T16:24:27;2.33;;;1.50;;
74616;SDS011;63123;50.906;4.198;2022-11-21T16:26:53;2.40;;;1.40;;
74616;SDS011;63123;50.906;4.198;2022-11-21T16:29:19;1.52;;;1.17;;
74616;SDS011;63123;50.906;4.198;2022-11-21T16:31:45;1.65;;;1.48;;
74616;SDS011;63123;50.906;4.198;2022-11-21T16:34:10;1.40;;;1.20;;
74616;SDS011;63123;50.906;4.198;2022-11-21T16:36:36;2.05;;;1.50;;
74616;SDS011;63123;50.906;4.198;2022-11-21T16:39:01;1.70;;;1.08;;
74616;SDS011;63123;50.906;4.198;2022-11-21T16:41:27;1.80;;;1.60;;
74616;SDS011;63123;50.906;4.198;2022-11-21T16:43:53;2.55;;;1.50;;
74616;SDS011;63123;50.906;4.198;2022-11-21T16:46:22;1.65;;;1.35;;
74616;SDS011;63123;50.906;4.198;2022-11-21T16:48:56;1.80;;;1.40;;
74616;SDS011;63123;50.906;4.198;2022-11-21T16:51:26;1.85;;;1.58;;
74616;SDS011;63123;50.906;4.198;2022-11-21T16:53:52;1.90;;;1.58;;
74616;SDS011;63123;50.906;4.198;2022-11-21T16:56:18;1.65;;;1.30;;
74616;SDS011;63123;50.906;4.198;2022-11-21T16:58:44;1.98;;;1.48;;
74616;SDS011;63123;50.906;4.198;2022-11-21T17:01:10;2.35;;;1.83;;
74616;SDS011;63123;50.906;4.198;2022-11-21T17:03:41;2.80;;;1.83;;
74616;SDS011;63123;50.906;4.198;2022-11-21T17:06:08;1.92;;;1.65;;
74616;SDS011;63123;50.906;4.198;2022-11-21T17:08:34;2.45;;;1.80;;